FWS weather

Fort Worth Spinks Airport
Fort Worth, Texas, United States

Public forecast

Using degrees Fahrenheit for public forecast. Weather courtesy of forecast.io.

METAR (pilot weather report)

Retrieved 2019/06/26 22:52 UTC (25 minutes ago):

KFWS 262252Z 16008KT 7SM SCT045 33/21 A3009

TAF (pilot weather forecast)

Closest forecast is Arlington Municipal Airport, 12.3 nm (22.8 km) ENE. Retrieved 2019/06/26 18:28 UTC (5 hours ago):

TAF KGKY 261725Z 2618/2718 18015G22KT P6SM SCT035 FM262000 18015KT P6SM VCTS BKN040CB BKN250 FM270000 17007KT P6SM SCT250 FM271500 18011KT P6SM SCT030